Impacts TAF Board
For situational awareness. Not to be used for flight planning purposes.
IDs:

KDTW - Detroit Metro/Wayne, MI, US

Issued at 2102 UTC 21 Sep 2021
Updated at 2229 UTC 21 Sep 2021
Potential Impact None Slight Moderate High
Time2153Z 21/23Z 22/00Z 22/01Z 22/02Z 22/03Z 22/04Z 22/05Z 22/06Z 22/07Z 22/08Z 22/09Z 22/10Z 22/11Z>>
Type OBS PRVL
  [TEMP]  
PRVL
  [TEMP]  
PRVL PRVL PRVL PRVL PRVL PRVL PRVL PRVL PRVL PRVL PRVL
VIS 9 6
  [3]  
6
  [3]  
3 3 3 3 3 3 3 3 4 4 4
CIG 55 40
  [15]  
40
  [15]  
6 6 6 6 6 6 6 6 8 8 8
Cover OVC OVC
  [OVC]  
OVC
  [OVC]  
OVC OVC OVC OVC OVC OVC OVC OVC OVC OVC OVC
FltCat VFR VFR
  [MVFR]  
VFR
  [MVFR]  
IFR IFR IFR IFR IFR IFR IFR IFR IFR IFR IFR
WX -- -SHRA
  [RA BR]  
-SHRA
  [RA BR]  
RA BR RA BR RA BR RA BR RA BR RA BR RA BR RA BR RA BR RA BR RA BR
WDir 200 200
[200]
200
[200]
10 10 10 10 10 10 10 10 360 360 360
WSpd 9 10
  [10]  
10
  [10]  
9 9 9 9 9 9 9 9 12 12 12
WGst -- --
  [--]  
--
  [--]  
-- -- -- -- -- -- -- -- -- -- --
Raw TAF
KDTW 212102Z 2121/2224 20010KT 6SM -SHRA SCT015 OVC040
  TEMPO 2122/2201 3SM RA BR OVC015
  FM220100 01009KT 3SM RA BR BKN006 OVC015
  FM220900 36012KT 4SM RA BR OVC008
  FM221500 01016G26KT 4SM RA BR OVC010
  FM222100 01017G28KT 6SM -RA BR OVC012


Raw METAR
KDTW 212153Z 20009KT 9SM FEW015 BKN055 OVC150 23/19 A3001 RMK AO2 LTG DSNT N SLP159 T02330189
KDTW 212053Z 18011KT 8SM SCT014 BKN060 BKN150 23/19 A3001 RMK AO2 SLP160 T02330194 58006
KDTW 211953Z 18011KT 8SM SCT014 BKN060 BKN150 24/20 A3002 RMK AO2 SLP163 T02440200

METAR Board
Radar Display
Forecast Discussion
For situational awareness. Not to be used for flight planning purposes.